Time;durP1;ratioP1;P1;durP2;ratioP2;P2;SDS_P1;SDS_P2;PMS_P1;PMS_P2;Temp;Humidity;BMP_temperature;BMP_pressure;BME280_temperature;BME280_humidity;BME280_pressure;Samples;Min_cycle;Max_cycle;Signal;HPM_P1;HPM_P2
2023/08/01 00:02:07;;;;;;;20.10;9.90;;;;;;;29.16;100.00;97211.44;4844792;29;20118;-66
2023/08/01 00:04:36;;;;;;;19.77;9.57;;;;;;;29.15;100.00;97220.75;4824167;29;20056;-66
2023/08/01 00:07:11;;;;;;;15.32;10.10;;;;;;;29.12;100.00;97213.25;4841907;29;20046;-66
2023/08/01 00:09:41;;;;;;;14.70;9.93;;;;;;;29.12;100.00;97215.97;4843400;29;20049;-66
2023/08/01 00:12:11;;;;;;;14.20;9.40;;;;;;;29.15;100.00;97215.28;4844225;29;20049;-66
2023/08/01 00:14:41;;;;;;;15.35;9.68;;;;;;;29.11;100.00;97211.69;4844331;29;20148;-66
2023/08/01 00:17:10;;;;;;;20.23;10.07;;;;;;;29.12;100.00;97213.25;4843522;29;20049;-66
2023/08/01 00:19:39;;;;;;;14.15;9.52;;;;;;;29.11;100.00;97219.06;4825713;29;20054;-66
2023/08/01 00:22:09;;;;;;;17.15;9.77;;;;;;;29.09;100.00;97213.16;4827017;29;20198;-66
2023/08/01 00:24:38;;;;;;;15.65;9.50;;;;;;;29.09;100.00;97213.16;4843503;29;20490;-66
2023/08/01 00:27:10;;;;;;;18.85;11.70;;;;;;;29.10;100.00;97214.75;4829677;29;20104;-66
2023/08/01 00:29:40;;;;;;;18.55;11.48;;;;;;;29.10;100.00;97217.47;4829791;29;20054;-64
2023/08/01 00:32:10;;;;;;;17.63;10.85;;;;;;;29.09;100.00;97213.94;4809440;29;20326;-65
2023/08/01 00:34:40;;;;;;;20.88;12.15;;;;;;;29.11;100.00;97222.59;4813360;29;20514;-65
2023/08/01 00:37:10;;;;;;;18.85;11.00;;;;;;;29.12;100.00;97215.97;4822799;29;20049;-66
2023/08/01 00:39:40;;;;;;;18.95;13.10;;;;;;;29.15;100.00;97222.69;4827083;29;20065;-65
2023/08/01 00:42:09;;;;;;;14.20;10.98;;;;;;;29.16;100.00;97225.06;4809474;29;20481;-64
2023/08/01 00:44:40;;;;;;;16.63;11.10;;;;;;;29.16;100.00;97219.63;4825886;29;20054;-65
2023/08/01 00:47:10;;;;;;;19.17;12.48;;;;;;;29.20;100.00;97227.88;4808645;29;20053;-65
2023/08/01 00:49:40;;;;;;;16.48;12.30;;;;;;;29.23;100.00;97230.69;4828565;29;20565;-64
2023/08/01 00:52:10;;;;;;;22.60;13.63;;;;;;;29.26;100.00;97229.19;4823123;29;20053;-65
2023/08/01 00:54:40;;;;;;;19.90;11.98;;;;;;;29.26;100.00;97235.44;4839723;29;20055;-64
2023/08/01 00:57:11;;;;;;;21.33;13.60;;;;;;;29.28;100.00;97237.84;4821538;29;20106;-64
2023/08/01 00:59:41;;;;;;;26.52;15.07;;;;;;;29.33;100.00;97237.59;4839196;29;20060;-65
2023/08/01 01:02:11;;;;;;;25.38;14.23;;;;;;;29.33;100.00;97227.50;4811662;29;20072;-65
2023/08/01 01:04:41;;;;;;;22.95;14.95;;;;;;;29.38;100.00;97235.44;4823450;29;20053;-64
2023/08/01 01:07:12;;;;;;;25.90;16.25;;;;;;;29.41;100.00;97239.38;4838365;29;20045;-65
2023/08/01 01:09:42;;;;;;;29.65;18.88;;;;;;;29.45;100.00;97230.13;4826124;29;20069;-65
2023/08/01 01:12:12;;;;;;;25.10;19.27;;;;;;;29.51;100.00;97229.88;4828097;29;20060;-65
2023/08/01 01:14:41;;;;;;;28.17;17.98;;;;;;;29.51;100.00;97236.13;4821815;29;20060;-64
2023/08/01 01:17:19;;;;;;;30.88;19.20;;;;;;;29.54;100.00;97245.53;4820371;29;20045;-64
2023/08/01 01:19:48;;;;;;;26.30;18.85;;;;;;;29.58;100.00;97238.22;4824036;29;20079;-64
2023/08/01 01:22:19;;;;;;;30.20;20.33;;;;;;;29.60;100.00;97233.22;4835387;29;20060;-64
2023/08/01 01:24:50;;;;;;;31.25;20.02;;;;;;;29.66;100.00;97237.25;4839392;29;20126;-64
2023/08/01 01:27:19;;;;;;;28.85;20.65;;;;;;;29.69;100.00;97233.84;4831333;29;20050;-64
2023/08/01 01:29:50;;;;;;;31.63;22.02;;;;;;;29.73;100.00;97242.91;4840963;29;20057;-64
2023/08/01 01:32:21;;;;;;;39.92;24.95;;;;;;;29.78;100.00;97245.38;4819737;29;20160;-64
2023/08/01 01:34:50;;;;;;;39.47;25.90;;;;;;;29.82;100.00;97235.34;4837043;29;20157;-65
2023/08/01 01:37:19;;;;;;;36.17;27.35;;;;;;;29.87;100.00;97243.28;4822138;29;20045;-65
2023/08/01 01:39:49;;;;;;;49.17;31.70;;;;;;;29.88;100.00;97240.19;4822507;29;20064;-66
2023/08/01 01:42:18;;;;;;;46.55;32.95;;;;;;;29.94;100.00;97246.19;4828514;29;20549;-64
2023/08/01 01:44:47;;;;;;;51.03;37.20;;;;;;;29.96;100.00;97241.19;4823869;29;20057;-65
2023/08/01 01:47:18;;;;;;;60.20;39.22;;;;;;;30.03;100.00;97246.00;4822147;29;20380;-64
2023/08/01 01:49:47;;;;;;;55.53;39.83;;;;;;;30.06;100.00;97248.00;4837960;29;20068;-64
2023/08/01 01:52:17;;;;;;;54.55;38.67;;;;;;;30.19;100.00;97257.69;4821531;29;20064;-65
2023/08/01 01:54:46;;;;;;;62.78;39.83;;;;;;;30.28;100.00;97261.81;4827268;29;20145;-64
2023/08/01 01:57:15;;;;;;;57.03;40.05;;;;;;;30.41;100.00;97262.47;4842464;29;20138;-64
2023/08/01 01:59:45;;;;;;;60.85;38.45;;;;;;;30.66;100.00;97260.34;4819324;29;20084;-65
2023/08/01 02:02:14;;;;;;;56.15;38.42;;;;;;;30.88;100.00;97262.34;4818096;29;20141;-64
2023/08/01 02:04:47;;;;;;;55.13;35.17;;;;;;;31.03;100.00;97271.66;4833002;29;20060;-65
2023/08/01 02:07:16;;;;;;;49.88;33.72;;;;;;;31.37;100.00;97270.78;4819047;29;20061;-64
2023/08/01 02:09:47;;;;;;;47.50;31.77;;;;;;;31.54;100.00;97277.72;4819989;29;20122;-65
2023/08/01 02:12:16;;;;;;;34.97;23.63;;;;;;;31.59;100.00;97278.25;4833119;29;20054;-64
2023/08/01 02:14:45;;;;;;;35.42;22.65;;;;;;;31.83;100.00;97281.75;4833270;29;20061;-64
2023/08/01 02:17:14;;;;;;;38.55;21.88;;;;;;;32.23;100.00;97284.00;4829739;29;20057;-64
2023/08/01 02:19:44;;;;;;;34.47;21.15;;;;;;;32.32;100.00;97282.56;4821866;29;20061;-64
2023/08/01 02:22:14;;;;;;;37.35;20.02;;;;;;;32.44;100.00;97289.81;4830069;29;20053;-65
2023/08/01 02:24:44;;;;;;;27.95;17.50;;;;;;;32.40;100.00;97292.47;4845042;29;20129;-65
2023/08/01 02:27:13;;;;;;;32.25;17.92;;;;;;;32.68;99.66;97288.59;4832742;29;20049;-65
2023/08/01 02:29:44;;;;;;;27.52;16.98;;;;;;;32.85;98.44;97293.53;4833547;29;20060;-64
2023/08/01 02:32:14;;;;;;;30.42;17.98;;;;;;;33.03;97.79;97291.00;4831395;29;20173;-65
2023/08/01 02:34:44;;;;;;;24.58;17.25;;;;;;;33.44;98.28;97298.19;4826625;29;20061;-65
2023/08/01 02:37:14;;;;;;;33.60;18.10;;;;;;;33.40;95.64;97297.34;4825407;29;20150;-65
2023/08/01 02:39:43;;;;;;;29.95;17.27;;;;;;;33.43;95.91;97302.09;4828741;29;20081;-65
2023/08/01 02:42:13;;;;;;;33.08;16.80;;;;;;;33.43;95.60;97304.81;4834246;29;20053;-65
2023/08/01 02:44:42;;;;;;;29.90;17.77;;;;;;;33.77;95.74;97306.38;4825680;29;20165;-65
2023/08/01 02:47:11;;;;;;;30.63;17.75;;;;;;;33.71;96.51;97309.84;4830202;29;20058;-65
2023/08/01 02:49:41;;;;;;;39.38;20.25;;;;;;;33.76;94.02;97315.81;4823872;29;20126;-65
2023/08/01 02:52:11;;;;;;;35.22;17.35;;;;;;;33.91;94.20;97311.22;4841432;29;20056;-66
2023/08/01 02:54:47;;;;;;;29.85;16.27;;;;;;;34.03;92.38;97308.19;4841918;29;20065;-65
2023/08/01 02:57:18;;;;;;;32.60;18.55;;;;;;;33.77;93.80;97311.06;4829302;29;20775;-65
2023/08/01 02:59:48;;;;;;;34.00;17.77;;;;;;;33.67;94.61;97311.78;4823321;29;20068;-65
2023/08/01 03:02:17;;;;;;;31.38;17.45;;;;;;;33.54;93.22;97310.44;4839874;29;20118;-65
2023/08/01 03:04:47;;;;;;;31.08;17.98;;;;;;;33.73;94.71;97311.03;4834653;29;20156;-65
2023/08/01 03:07:16;;;;;;;29.88;18.63;;;;;;;33.46;94.14;97306.81;4825124;29;20130;-65
2023/08/01 03:09:46;;;;;;;27.85;17.17;;;;;;;33.49;94.24;97300.59;4814107;29;20129;-65
2023/08/01 03:12:16;;;;;;;30.35;15.73;;;;;;;33.44;96.26;97302.88;4824428;29;20059;-66
2023/08/01 03:14:47;;;;;;;28.50;16.08;;;;;;;33.44;95.45;97311.09;4815716;29;20059;-66
2023/08/01 03:17:17;;;;;;;26.85;15.13;;;;;;;33.35;95.66;97306.72;4825995;29;20137;-65
2023/08/01 03:19:48;;;;;;;26.88;13.30;;;;;;;33.33;93.27;97308.22;4839598;29;20057;-65
2023/08/01 03:22:18;;;;;;;23.77;12.48;;;;;;;33.28;92.93;97306.63;4831123;29;20054;-65
2023/08/01 03:24:47;;;;;;;27.27;12.00;;;;;;;33.41;93.19;97309.91;4823602;29;20049;-65
2023/08/01 03:27:17;;;;;;;28.58;12.43;;;;;;;33.49;93.02;97308.03;4829356;29;20050;-65
2023/08/01 03:29:47;;;;;;;19.42;10.52;;;;;;;33.51;94.84;97308.44;4829030;29;20046;-65
2023/08/01 03:32:16;;;;;;;20.98;9.13;;;;;;;33.49;91.45;97308.81;4828072;29;20050;-65
2023/08/01 03:34:45;;;;;;;16.85;7.90;;;;;;;33.51;92.01;97316.66;4821756;29;20064;-64
2023/08/01 03:37:16;;;;;;;18.67;8.13;;;;;;;33.59;90.99;97312.84;4815238;29;20050;-65
2023/08/01 03:39:45;;;;;;;17.88;7.00;;;;;;;33.67;90.12;97312.56;4816216;29;20053;-65
2023/08/01 03:42:15;;;;;;;15.88;6.82;;;;;;;33.76;90.24;97318.56;4822253;29;20064;-65
2023/08/01 03:44:46;;;;;;;18.88;7.20;;;;;;;33.97;90.01;97314.41;4844612;29;20053;-64
2023/08/01 03:47:15;;;;;;;21.33;7.40;;;;;;;34.07;90.64;97311.75;4831080;29;20134;-65
2023/08/01 03:49:45;;;;;;;15.25;6.57;;;;;;;33.97;88.12;97314.41;4817858;29;20059;-65
2023/08/01 03:52:15;;;;;;;13.20;6.68;;;;;;;34.06;87.11;97317.63;4842820;29;20056;-66
2023/08/01 03:54:44;;;;;;;16.52;7.35;;;;;;;34.17;87.69;97315.78;4834678;29;20066;-65
2023/08/01 03:57:15;;;;;;;18.33;6.93;;;;;;;34.51;88.92;97306.22;4827760;29;20050;-64
2023/08/01 03:59:46;;;;;;;17.45;8.10;;;;;;;34.47;86.61;97321.91;4820642;29;20589;-65
2023/08/01 04:02:16;;;;;;;17.20;7.20;;;;;;;34.61;85.47;97323.97;4843360;29;20050;-65
2023/08/01 04:04:46;;;;;;;22.33;8.48;;;;;;;34.35;84.92;97322.19;4824305;29;20049;-64
2023/08/01 04:07:17;;;;;;;17.05;7.72;;;;;;;34.60;84.79;97312.19;4843650;29;20533;-65
2023/08/01 04:09:47;;;;;;;17.85;7.68;;;;;;;34.65;83.66;97317.28;4825964;29;20076;-63
2023/08/01 04:12:16;;;;;;;19.42;7.60;;;;;;;34.94;83.88;97312.78;4839416;29;20052;-64
2023/08/01 04:14:46;;;;;;;14.82;6.28;;;;;;;34.78;83.33;97320.56;4840709;29;20134;-64
2023/08/01 04:17:15;;;;;;;20.08;6.15;;;;;;;34.94;86.90;97323.78;4843448;29;20494;-66
2023/08/01 04:19:44;;;;;;;18.13;5.40;;;;;;;34.61;85.71;97321.97;4839725;29;20691;-65
2023/08/01 04:22:14;;;;;;;13.50;5.35;;;;;;;34.32;84.73;97322.97;4841831;29;20053;-66
2023/08/01 04:24:44;;;;;;;12.20;3.90;;;;;;;34.14;84.39;97324.75;4846842;29;20060;-66
2023/08/01 04:27:13;;;;;;;13.77;4.15;;;;;;;34.03;85.86;97330.19;4826293;29;20057;-67
2023/08/01 04:29:42;;;;;;;18.25;4.40;;;;;;;33.97;86.04;97330.91;4843722;29;20137;-67
2023/08/01 04:32:14;;;;;;;12.60;4.60;;;;;;;33.91;87.24;97321.41;4841919;29;20769;-67
2023/08/01 04:34:43;;;;;;;13.75;4.43;;;;;;;33.84;88.08;97322.94;4826549;29;20050;-67
2023/08/01 04:37:12;;;;;;;13.68;5.20;;;;;;;34.03;86.97;97313.69;4842025;29;20107;-68
2023/08/01 04:39:41;;;;;;;15.15;5.28;;;;;;;34.33;85.81;97315.50;4834256;29;20110;-67
2023/08/01 04:42:11;;;;;;;14.13;4.75;;;;;;;34.44;86.84;97330.13;4841001;29;20382;-67
2023/08/01 04:44:40;;;;;;;10.82;4.25;;;;;;;34.60;83.64;97320.44;4829870;29;20077;-67
2023/08/01 04:47:11;;;;;;;10.27;4.05;;;;;;;35.00;81.55;97324.22;4839714;29;20074;-68
2023/08/01 04:49:40;;;;;;;14.70;4.65;;;;;;;35.20;81.40;97325.50;4841605;29;20378;-68
2023/08/01 04:55:26;;;;;;;22.02;5.47;;;;;;;35.45;80.55;97318.09;4952145;24;20064;-64
2023/08/01 04:57:55;;;;;;;13.70;4.43;;;;;;;35.55;80.17;97322.84;4749657;30;20193;-64
2023/08/01 05:00:25;;;;;;;14.70;3.70;;;;;;;35.56;78.09;97329.16;4749661;30;20127;-64
2023/08/01 05:02:54;;;;;;;15.05;4.28;;;;;;;35.54;74.92;97323.22;4749527;30;20480;-64
2023/08/01 05:05:24;;;;;;;13.18;4.60;;;;;;;35.85;77.05;97324.53;4754321;30;20055;-64
2023/08/01 05:07:53;;;;;;;10.45;4.00;;;;;;;35.54;75.19;97324.03;4753320;30;20062;-64
2023/08/01 05:10:22;;;;;;;11.73;3.67;;;;;;;35.62;76.22;97315.78;4747831;30;20048;-64
2023/08/01 05:12:52;;;;;;;19.42;5.07;;;;;;;35.58;78.16;97313.03;4756177;30;20215;-65
2023/08/01 05:15:22;;;;;;;14.75;4.22;;;;;;;36.25;77.09;97321.41;4747839;30;20455;-65
2023/08/01 05:17:53;;;;;;;11.82;3.97;;;;;;;36.28;73.85;97320.63;4749223;30;20168;-66
2023/08/01 05:20:30;;;;;;;16.02;4.07;;;;;;;36.51;75.63;97331.25;4750163;30;20059;-65
2023/08/01 05:22:59;;;;;;;14.95;5.15;;;;;;;36.64;74.95;97326.13;4749985;30;20159;-65
2023/08/01 05:25:29;;;;;;;17.00;4.22;;;;;;;36.75;76.02;97329.63;4751907;30;20620;-64
2023/08/01 05:27:58;;;;;;;9.27;3.85;;;;;;;36.70;71.75;97328.06;4747100;30;20064;-65
2023/08/01 05:30:28;;;;;;;14.90;3.85;;;;;;;36.69;69.06;97326.50;4747848;30;20488;-65
2023/08/01 05:32:58;;;;;;;17.92;4.68;;;;;;;36.45;69.61;97322.56;4750259;30;20051;-66
2023/08/01 05:35:27;;;;;;;12.13;5.05;;;;;;;36.60;70.10;97328.91;4741946;30;20066;-66
2023/08/01 05:37:56;;;;;;;14.82;5.25;;;;;;;36.68;72.38;97324.94;4733880;30;20139;-65
2023/08/01 05:40:27;;;;;;;11.45;4.38;;;;;;;36.94;70.39;97322.88;4741705;30;20389;-66
2023/08/01 05:42:57;;;;;;;14.40;5.80;;;;;;;37.16;68.57;97327.97;4729917;30;20895;-66
2023/08/01 05:45:26;;;;;;;15.63;5.93;;;;;;;37.19;70.03;97321.63;4742994;30;20131;-66
2023/08/01 05:47:55;;;;;;;15.02;4.93;;;;;;;37.23;70.43;97322.41;4747046;30;20048;-66
2023/08/01 05:50:25;;;;;;;16.38;6.78;;;;;;;37.32;69.76;97319.19;4742869;30;20067;-67
2023/08/01 05:52:57;;;;;;;9.02;4.95;;;;;;;37.22;69.42;97320.81;4744878;30;20071;-65
2023/08/01 05:55:27;;;;;;;16.08;5.88;;;;;;;37.54;70.43;97325.44;4743238;30;20048;-63
2023/08/01 05:57:56;;;;;;;15.10;5.22;;;;;;;36.89;70.63;97324.88;4745808;30;20190;-65
2023/08/01 06:00:25;;;;;;;17.85;6.85;;;;;;;37.01;72.79;97320.88;4756567;30;20067;-66
2023/08/01 06:02:55;;;;;;;19.73;5.78;;;;;;;37.15;69.87;97325.59;4751981;30;20301;-66
2023/08/01 06:05:25;;;;;;;13.25;4.78;;;;;;;36.82;68.83;97313.06;4752415;30;20238;-65
2023/08/01 06:07:54;;;;;;;16.60;5.30;;;;;;;36.59;69.49;97318.22;4745628;30;20095;-66
2023/08/01 06:10:24;;;;;;;17.15;5.20;;;;;;;36.19;72.94;97320.22;4747392;30;20124;-65
2023/08/01 06:12:53;;;;;;;13.95;5.20;;;;;;;35.88;74.97;97316.25;4747384;30;20520;-65
2023/08/01 06:15:22;;;;;;;14.07;5.20;;;;;;;35.91;73.92;97311.91;4739247;30;20495;-65
2023/08/01 06:17:53;;;;;;;15.55;5.00;;;;;;;35.83;75.19;97319.41;4743067;30;20110;-65
2023/08/01 06:20:23;;;;;;;14.00;4.97;;;;;;;35.97;75.36;97313.09;4743883;30;20139;-65
2023/08/01 06:22:53;;;;;;;16.95;4.85;;;;;;;35.88;72.72;97309.94;4745842;30;20048;-64
2023/08/01 06:25:22;;;;;;;14.00;5.68;;;;;;;35.66;73.59;97303.63;4743800;30;20064;-66
2023/08/01 06:27:52;;;;;;;15.85;5.57;;;;;;;35.82;72.22;97306.78;4742779;30;20068;-65
2023/08/01 06:30:21;;;;;;;18.08;5.22;;;;;;;36.27;72.00;97299.75;4742057;30;20166;-65
2023/08/01 06:32:51;;;;;;;12.15;4.78;;;;;;;36.27;71.37;97302.50;4739291;30;20135;-64
2023/08/01 06:35:22;;;;;;;10.52;3.97;;;;;;;36.28;72.17;97295.00;4757816;30;20062;-65
2023/08/01 06:37:51;;;;;;;20.55;4.88;;;;;;;36.35;73.07;97298.53;4742475;30;20098;-66
2023/08/01 06:40:20;;;;;;;15.80;5.32;;;;;;;36.19;76.33;97292.66;4756153;30;20060;-66
2023/08/01 06:42:50;;;;;;;9.35;3.75;;;;;;;36.00;74.26;97284.75;4744960;30;20159;-66
2023/08/01 06:45:19;;;;;;;19.52;4.85;;;;;;;35.82;76.19;97292.22;4747458;30;20135;-65
2023/08/01 06:47:48;;;;;;;12.80;4.47;;;;;;;35.66;75.88;97292.59;4744679;30;20052;-66
2023/08/01 06:50:18;;;;;;;17.73;5.10;;;;;;;35.63;76.74;97293.34;4744405;30;20051;-65
2023/08/01 06:52:47;;;;;;;18.83;5.00;;;;;;;35.46;77.15;97281.13;4749606;30;20852;-65
2023/08/01 06:55:17;;;;;;;11.35;4.80;;;;;;;35.39;77.34;97283.88;4748544;30;20063;-65
2023/08/01 06:57:47;;;;;;;11.82;5.00;;;;;;;35.26;76.94;97282.66;4748013;30;20083;-64
2023/08/01 07:00:17;;;;;;;14.68;5.60;;;;;;;35.22;79.29;97273.59;4751171;30;20125;-63
2023/08/01 07:02:46;;;;;;;12.23;5.32;;;;;;;35.09;78.74;97275.88;4747563;30;20127;-62
2023/08/01 07:05:16;;;;;;;17.05;5.00;;;;;;;35.02;75.85;97278.59;4750243;30;20446;-63
2023/08/01 07:07:47;;;;;;;10.35;5.07;;;;;;;34.99;77.64;97273.88;4762869;30;20056;-65
2023/08/01 07:10:17;;;;;;;14.98;6.45;;;;;;;34.94;78.11;97274.25;4731537;30;20056;-65
2023/08/01 07:12:46;;;;;;;14.63;6.07;;;;;;;35.08;81.13;97271.56;4736877;30;20047;-66
2023/08/01 07:15:16;;;;;;;20.08;5.57;;;;;;;35.06;78.42;97265.63;4752444;30;20122;-66
2023/08/01 07:17:45;;;;;;;12.38;5.53;;;;;;;34.94;78.49;97263.22;4753732;30;20055;-64
2023/08/01 07:20:14;;;;;;;15.98;5.55;;;;;;;34.79;82.28;97266.31;4746391;30;20143;-64
2023/08/01 07:22:44;;;;;;;15.63;6.07;;;;;;;34.56;80.46;97261.84;4747856;30;20044;-64
2023/08/01 07:25:15;;;;;;;22.67;6.82;;;;;;;34.42;81.30;97253.53;4745939;30;20142;-64
2023/08/01 07:27:45;;;;;;;9.30;5.35;;;;;;;34.37;78.55;97253.88;4752974;30;20052;-63
2023/08/01 07:30:15;;;;;;;12.20;5.85;;;;;;;34.24;80.16;97252.63;4755515;30;20067;-66
2023/08/01 07:32:46;;;;;;;12.10;5.55;;;;;;;34.12;82.81;97252.91;4751249;30;20598;-66
2023/08/01 07:35:16;;;;;;;11.57;5.90;;;;;;;33.99;84.44;97252.41;4747586;30;20889;-64
2023/08/01 07:37:46;;;;;;;13.40;5.82;;;;;;;33.90;82.13;97240.19;4749170;30;20056;-67
2023/08/01 07:40:15;;;;;;;12.32;4.70;;;;;;;33.90;77.45;97251.97;4746951;30;20714;-68
2023/08/01 07:42:46;;;;;;;15.88;5.95;;;;;;;33.84;79.07;97258.97;4755378;30;20063;-65
2023/08/01 07:45:15;;;;;;;14.35;5.57;;;;;;;33.77;79.51;97262.44;4749419;30;20048;-65
2023/08/01 07:47:46;;;;;;;14.50;4.85;;;;;;;33.77;74.76;97272.63;4748325;30;20071;-65
2023/08/01 07:50:15;;;;;;;12.75;6.28;;;;;;;33.45;81.82;97277.00;4751556;30;20071;-66
2023/08/01 07:52:44;;;;;;;10.95;5.35;;;;;;;32.56;90.64;97267.66;4749158;30;20813;-66
2023/08/01 07:55:15;;;;;;;11.43;6.07;;;;;;;31.92;95.18;97274.88;4754989;30;20366;-66
2023/08/01 07:57:45;;;;;;;18.05;7.22;;;;;;;31.47;97.80;97289.31;4753942;30;20131;-65
2023/08/01 08:00:14;;;;;;;14.27;7.35;;;;;;;30.66;100.00;97290.41;4751782;30;20066;-66
2023/08/01 08:02:45;;;;;;;8.57;5.47;;;;;;;30.65;100.00;97299.75;4750564;30;20060;-65
2023/08/01 08:05:15;;;;;;;12.40;6.90;;;;;;;30.35;100.00;97285.78;4753017;30;20056;-65
2023/08/01 08:07:45;;;;;;;11.00;6.18;;;;;;;29.87;100.00;97300.59;4749689;30;20063;-65
2023/08/01 08:10:15;;;;;;;10.95;6.40;;;;;;;29.35;100.00;97314.41;4748431;30;20139;-63
2023/08/01 08:12:44;;;;;;;13.13;6.22;;;;;;;28.70;100.00;97332.78;4750623;30;20062;-65
2023/08/01 08:15:15;;;;;;;12.93;6.15;;;;;;;28.18;100.00;97338.13;4750823;30;20114;-68
2023/08/01 08:17:46;;;;;;;12.90;6.63;;;;;;;27.10;100.00;97299.41;4744096;30;20058;-69
2023/08/01 08:20:17;;;;;;;11.90;6.78;;;;;;;26.73;100.00;97341.84;4747934;30;20073;-69
2023/08/01 08:22:48;;;;;;;10.77;5.90;;;;;;;26.49;100.00;97360.72;4749799;30;20063;-67
2023/08/01 08:25:17;;;;;;;15.07;6.00;;;;;;;24.65;100.00;97384.41;4749574;30;20381;-64
2023/08/01 08:27:48;;;;;;;15.32;4.72;;;;;;;25.02;100.00;97391.97;4745243;30;20056;-65
2023/08/01 08:30:18;;;;;;;7.65;4.78;;;;;;;24.85;100.00;97443.38;4748957;30;20067;-67
2023/08/01 08:32:47;;;;;;;6.15;3.22;;;;;;;24.65;100.00;97511.66;4749167;30;20059;-67
2023/08/01 08:35:16;;;;;;;7.10;3.60;;;;;;;24.82;100.00;97509.03;4753082;30;20059;-66
2023/08/01 08:37:46;;;;;;;5.53;3.63;;;;;;;24.51;100.00;97466.53;4757519;30;20051;-67
2023/08/01 08:40:15;;;;;;;8.63;3.83;;;;;;;24.33;100.00;97439.72;4750842;30;20054;-65
2023/08/01 08:42:46;;;;;;;8.32;4.38;;;;;;;24.43;100.00;97409.66;4752590;30;20613;-68
2023/08/01 08:45:20;;;;;;;5.45;3.30;;;;;;;24.73;100.00;97411.50;4748288;30;20054;-68
2023/08/01 08:47:55;;;;;;;7.75;3.20;;;;;;;24.79;100.00;97401.28;4745408;30;20084;-65
2023/08/01 08:50:29;;;;;;;4.03;2.65;;;;;;;24.61;100.00;97376.09;4747501;30;20067;-65
2023/08/01 08:53:00;;;;;;;4.22;2.10;;;;;;;24.65;100.00;97349.97;4733351;30;20637;-65
2023/08/01 08:55:31;;;;;;;8.48;2.08;;;;;;;24.86;100.00;97325.84;4745485;30;20060;-66
2023/08/01 08:58:01;;;;;;;2.45;1.83;;;;;;;24.86;100.00;97323.94;4747154;30;20051;-66
2023/08/01 09:00:32;;;;;;;3.28;2.35;;;;;;;25.07;100.00;97326.78;4746305;30;20535;-68
2023/08/01 09:03:07;;;;;;;2.50;2.13;;;;;;;24.91;100.00;97293.19;4745356;30;20167;-65
2023/08/01 09:05:46;;;;;;;2.70;2.00;;;;;;;25.05;100.00;97274.81;4735640;30;20297;-65
2023/08/01 09:08:24;;;;;;;5.30;2.40;;;;;;;25.47;100.00;97287.50;4740273;30;20055;-66
2023/08/01 09:10:53;;;;;;;3.63;2.45;;;;;;;25.33;100.00;97283.38;4738217;30;20052;-65
2023/08/01 09:13:23;;;;;;;3.80;2.80;;;;;;;25.66;100.00;97275.53;4741198;30;20059;-66
2023/08/01 09:15:53;;;;;;;4.93;3.08;;;;;;;25.76;100.00;97262.38;4753184;29;20474;-66
2023/08/01 09:18:22;;;;;;;4.72;2.72;;;;;;;25.68;100.00;97268.63;4740558;30;20327;-66
2023/08/01 09:20:52;;;;;;;4.55;3.28;;;;;;;25.92;100.00;97247.16;4743029;30;20063;-66
2023/08/01 09:23:27;;;;;;;6.18;3.60;;;;;;;26.10;100.00;97228.06;4740714;30;20137;-67
2023/08/01 09:25:56;;;;;;;4.43;3.67;;;;;;;26.37;100.00;97238.47;4742961;30;20067;-66
2023/08/01 09:28:27;;;;;;;6.03;4.20;;;;;;;26.51;100.00;97243.63;4743710;30;20055;-68
2023/08/01 09:30:57;;;;;;;5.95;3.80;;;;;;;26.65;100.00;97241.41;4739114;30;20052;-67
2023/08/01 09:33:37;;;;;;;8.77;5.70;;;;;;;26.72;100.00;97242.50;4737770;30;20064;-66
2023/08/01 09:36:10;;;;;;;7.65;4.20;;;;;;;26.75;100.00;97241.81;4728230;30;20056;-66
2023/08/01 09:38:39;;;;;;;;;;;;;;;26.85;100.00;97246.09;4735262;30;20058;-66
2023/08/01 09:41:19;;;;;;;5.63;4.60;;;;;;;26.96;100.00;97238.31;4747442;30;19937;-67
2023/08/01 09:43:51;;;;;;;5.05;4.20;;;;;;;27.13;100.00;97227.28;4742544;30;20143;-67
2023/08/01 09:46:20;;;;;;;5.90;5.07;;;;;;;27.29;100.00;97230.94;4735469;30;20640;-67
2023/08/01 09:48:50;;;;;;;6.80;5.50;;;;;;;27.34;100.00;97225.28;4729439;30;20110;-67
2023/08/01 09:51:19;;;;;;;8.30;5.97;;;;;;;27.52;100.00;97224.00;4741395;30;20421;-66
2023/08/01 09:53:54;;;;;;;7.10;6.03;;;;;;;27.57;100.00;97223.75;4734615;30;20066;-66
2023/08/01 09:56:26;;;;;;;6.72;6.05;;;;;;;27.74;100.00;97216.53;4734130;30;20144;-65
2023/08/01 09:58:56;;;;;;;8.80;7.17;;;;;;;27.80;100.00;97213.22;4739735;30;20108;-65
2023/08/01 10:01:32;;;;;;;10.38;7.80;;;;;;;27.81;100.00;97203.94;4741629;30;20366;-65
2023/08/01 10:04:03;;;;;;;9.20;7.40;;;;;;;27.92;100.00;97193.38;4740545;30;20064;-66
2023/08/01 10:06:37;;;;;;;11.82;8.50;;;;;;;27.92;100.00;97190.66;4741450;30;20908;-66
2023/08/01 10:09:11;;;;;;;11.27;8.00;;;;;;;28.16;100.00;97189.84;4739986;30;20423;-66
2023/08/01 10:11:43;;;;;;;12.65;8.38;;;;;;;28.28;100.00;97187.88;4750581;30;20051;-69
2023/08/01 10:14:14;;;;;;;109.50;75.78;;;;;;;28.33;100.00;97190.38;4741389;30;20067;-68
2023/08/01 10:16:45;;;;;;;104.80;76.40;;;;;;;28.44;100.00;97185.25;4740584;30;20069;-68
2023/08/01 10:19:15;;;;;;;33.95;26.10;;;;;;;28.61;100.00;97186.88;4724442;30;20155;-68
2023/08/01 10:21:48;;;;;;;14.15;12.75;;;;;;;28.69;100.00;97178.56;4746550;30;20051;-68
2023/08/01 10:24:21;;;;;;;15.80;12.57;;;;;;;28.91;100.00;97175.31;4742585;30;20055;-65
2023/08/01 10:26:52;;;;;;;13.48;12.07;;;;;;;29.00;100.00;97180.59;4741145;30;20060;-68
2023/08/01 10:29:34;;;;;;;12.80;10.90;;;;;;;29.01;100.00;97177.53;4737173;30;20067;-67
2023/08/01 10:32:06;;;;;;;13.45;8.85;;;;;;;29.04;100.00;97173.31;4737427;30;20169;-67
2023/08/01 10:34:36;;;;;;;10.57;9.20;;;;;;;29.15;100.00;97177.13;4743490;30;20155;-67
2023/08/01 10:37:08;;;;;;;14.85;9.93;;;;;;;29.22;100.00;97174.56;4743273;30;20079;-67
2023/08/01 10:39:59;;;;;;;10.85;9.63;;;;;;;29.28;100.00;97164.19;4744050;30;20059;-68
2023/08/01 10:42:42;;;;;;;11.73;10.38;;;;;;;29.28;100.00;97162.25;4743357;30;20052;-67
2023/08/01 10:45:23;;;;;;;11.32;10.25;;;;;;;29.35;100.00;97156.19;4753866;30;20059;-67
2023/08/01 10:48:10;;;;;;;12.07;10.57;;;;;;;29.47;100.00;97155.34;4760782;30;20048;-67
2023/08/01 10:50:40;;;;;;;12.10;10.90;;;;;;;29.52;100.00;97149.63;4747479;30;20047;-67
2023/08/01 10:53:10;;;;;;;13.10;10.55;;;;;;;29.51;100.00;97146.09;4763778;30;20102;-66
2023/08/01 10:55:46;;;;;;;14.82;11.65;;;;;;;29.51;100.00;97139.84;4749274;30;20059;-67
2023/08/01 10:58:16;;;;;;;15.57;11.70;;;;;;;29.50;100.00;97133.59;4764834;30;20066;-65
2023/08/01 11:00:45;;;;;;;16.48;12.27;;;;;;;29.59;100.00;97138.88;4760501;29;20201;-64
2023/08/01 11:03:19;;;;;;;14.55;12.70;;;;;;;29.67;100.00;97129.69;4742036;30;20606;-65
2023/08/01 11:05:58;;;;;;;18.02;13.93;;;;;;;29.77;100.00;97123.69;4719740;30;20063;-65
2023/08/01 11:08:36;;;;;;;17.98;13.98;;;;;;;29.84;100.00;97134.75;4745403;30;20056;-66
2023/08/01 11:11:08;;;;;;;18.65;15.15;;;;;;;29.98;100.00;97137.84;4730432;30;20052;-64
2023/08/01 11:13:41;;;;;;;17.80;13.90;;;;;;;30.10;100.00;97137.72;4744828;30;20067;-66
2023/08/01 11:16:12;;;;;;;15.85;14.23;;;;;;;30.21;100.00;97130.53;4746759;30;20079;-66
2023/08/01 11:18:44;;;;;;;14.93;13.18;;;;;;;30.26;100.00;97129.47;4758143;30;20131;-65
2023/08/01 11:21:27;;;;;;;15.75;13.95;;;;;;;30.30;100.00;97139.31;4741051;30;20052;-66
2023/08/01 11:23:57;;;;;;;18.17;14.13;;;;;;;30.39;100.00;97127.38;4744953;30;20068;-66
2023/08/01 11:26:27;;;;;;;20.60;15.20;;;;;;;30.45;100.00;97128.72;4745567;30;20440;-66
2023/08/01 11:29:00;;;;;;;17.30;14.85;;;;;;;30.53;100.00;97124.97;4746250;30;20058;-67
2023/08/01 11:31:31;;;;;;;20.45;15.07;;;;;;;30.50;100.00;97122.94;4744547;30;20048;-67
2023/08/01 11:34:00;;;;;;;17.67;14.57;;;;;;;30.50;100.00;97122.94;4742313;30;20143;-65
2023/08/01 11:36:30;;;;;;;22.50;15.32;;;;;;;30.54;100.00;97121.06;4745322;30;20141;-68
2023/08/01 11:39:02;;;;;;;17.23;14.55;;;;;;;30.60;100.00;97117.69;4739836;30;20113;-67